In Rescue
 
Open Full Screen Window  High Contrast Mode
Wind Gusting 00 knots
10
July 13, 2020 10:08 PM CDT
Weather Information
Wind Direction
  170 °
Wind Speed
  10 kt (12 mph)
Wind Gust
  00 kt (0 mph)
Altimeter
29.71 in
Visibility
10 SM
Temperature
25° C
77° F
Dewpoint
20° C
68° F
Humidity
74%
1hr Rain Fall
00.00 in.
24hr Rain Fall
00.00 in.
Sky Condition
Broken @ 4,800 ft
VFR

METAR KD39 140308Z AUTO 17010KT 10SM BKN048 25/20 A2971 RMK AO2 LTG DSNT N AND NW T02450204

FAA Disclaimer: The data displayed is for advisory purposes only and is not to be used for flight planning or operations.